Aérodrome :
LOGIN :

S'inscrire | Disclaimer

   EN    FR    IT 

 










Légende :    VFR   VFR Marginal   IFR   IFR Intensif   IFR Très Intensif
Visi : 
Plafond : 
>= 8 km
>= 3000ft
5 à 8 km
1000 à 3000 ft
1500m à 5 km
500 à 1000 ft
800 à 1500m
200 à 500 ft
< 800m
< 200 ft
Symboles :   Orages  Brouillard  Fortes neiges  Fortes précipitations  Vent > 20 kt
SIGMETs :   Divers  Orages  Givrage  Turbulence  Onde Orograph.  Cendres Volcan.







- Altitude de l'aérodrome : 10 ft
- Code IATA : AAL


EKYT - Aalborg

DERNIER METAR :
  • 191650Z AUTO 31006KT 9999 FEW085/// 19/12 Q1012

METARs EXPIRÉS :
  • 191620Z AUTO 29008KT 9999 NCD 19/12 Q1012
  • 191550Z AUTO 30006KT 260V340 9999 SCT080/// 19/12 Q1012
  • 191520Z AUTO 31007KT 270V350 9999 FEW080/// 19/13 Q1012
  • 191450Z AUTO 30008KT 9999 NCD 19/13 Q1012
  • 191420Z AUTO 30007KT 9999 FEW017/// SCT060/// 18/13 Q1012

TAF COR TAF EKYT
Valide du 19 à 16h jusqu'au 20 à 15h UTC


191611Z 1916/2015 29006KT 9999 SCT030
BECMG 1920/1923 VRB03KT
PROB40 1923/2005 1200 MIFG
BECMG 2003/2006 14006KT
BECMG 2012/2015 14012KT -RA
Pas de NOTAMs connus pour ce terrain.



MET'MAP, la Météo Aéronautique d'un coup d'oeil ! - Copyright ORBIFLY Décembre 2007 - Disclaimer

ORBIFLY MET'MAP TEAM :

Programmation & Développement : Alexandra Zaïnal
Conception & Développement : Baudouin d'Aumeries
Co-Programmation & Développement : Marc-Olivier Méhu
Soutien technique & logistique : Manuel Goepfert

Contact : metmap@orbifly.com




SOURCES & CREDITS :

   NOAA